createdAt,value
2022-07-28T00:00:44.538Z,19.78
2022-07-28T00:03:49.002Z,19.76
2022-07-28T00:06:53.105Z,19.83
2022-07-28T00:10:00.608Z,19.82
2022-07-28T00:13:06.902Z,19.83
2022-07-28T00:16:11.282Z,19.81
2022-07-28T00:19:15.158Z,19.88
2022-07-28T00:22:18.927Z,19.92
2022-07-28T00:25:22.684Z,19.91
2022-07-28T00:28:27.022Z,19.96
2022-07-28T00:31:31.243Z,19.94
2022-07-28T00:34:35.792Z,19.96
2022-07-28T00:37:41.042Z,19.91
2022-07-28T00:41:03.979Z,19.87
2022-07-28T00:44:08.115Z,19.93
2022-07-28T00:47:12.024Z,19.95
2022-07-28T00:50:04.171Z,19.94
2022-07-28T00:52:30.630Z,19.92
2022-07-28T00:55:00.900Z,19.86
2022-07-28T00:57:27.398Z,19.91
2022-07-28T00:59:54.101Z,19.87
2022-07-28T01:02:21.119Z,19.87
2022-07-28T01:04:47.882Z,19.72
2022-07-28T01:07:29.452Z,19.73
2022-07-28T01:10:28.479Z,19.67
2022-07-28T01:13:15.960Z,19.53
2022-07-28T01:15:49.620Z,19.48
2022-07-28T01:18:21.182Z,19.37
2022-07-28T01:20:52.776Z,19.35
2022-07-28T01:23:31.267Z,19.51
2022-07-28T01:26:03.822Z,19.50
2022-07-28T01:28:52.593Z,19.54
2022-07-28T01:31:28.035Z,19.50
2022-07-28T01:34:00.649Z,19.41
2022-07-28T01:36:37.161Z,19.22
2022-07-28T01:39:03.807Z,19.09
2022-07-28T01:41:32.191Z,18.98
2022-07-28T01:44:02.878Z,18.92
2022-07-28T01:46:30.366Z,18.93
2022-07-28T01:49:03.336Z,18.78
2022-07-28T01:51:33.413Z,18.78
2022-07-28T01:54:04.981Z,18.69
2022-07-28T01:56:33.328Z,18.67
2022-07-28T01:59:05.443Z,18.61
2022-07-28T02:01:36.689Z,18.57
2022-07-28T02:04:06.015Z,18.48
2022-07-28T02:06:34.854Z,18.51
2022-07-28T02:09:03.704Z,18.45
2022-07-28T02:11:40.108Z,18.44
2022-07-28T02:14:14.649Z,18.39
2022-07-28T02:16:49.629Z,18.31
2022-07-28T02:19:18.327Z,18.29
2022-07-28T02:21:49.808Z,18.16
2022-07-28T02:24:21.707Z,18.15
2022-07-28T02:26:55.552Z,18.10
2022-07-28T02:29:49.276Z,17.99
2022-07-28T02:32:27.759Z,17.88
2022-07-28T02:35:01.770Z,17.79
2022-07-28T02:37:38.098Z,17.77
2022-07-28T02:40:06.437Z,17.79
2022-07-28T02:42:37.932Z,17.74
2022-07-28T02:45:08.592Z,17.70
2022-07-28T02:47:46.728Z,17.76
2022-07-28T02:50:14.980Z,17.69
2022-07-28T02:52:43.177Z,17.72
2022-07-28T02:55:12.243Z,17.75
2022-07-28T02:57:40.813Z,17.78
2022-07-28T03:00:10.431Z,17.75
2022-07-28T03:02:38.574Z,17.74
2022-07-28T03:05:11.325Z,17.76
2022-07-28T03:07:50.847Z,17.75
2022-07-28T03:10:33.815Z,17.71
2022-07-28T03:13:07.111Z,17.58
2022-07-28T03:15:37.600Z,17.60
2022-07-28T03:18:05.171Z,17.60
2022-07-28T03:20:31.814Z,17.59
2022-07-28T03:22:59.089Z,17.63
2022-07-28T03:25:44.563Z,17.61
2022-07-28T03:28:20.238Z,17.60
2022-07-28T03:31:13.923Z,17.49
2022-07-28T03:33:40.765Z,17.50
2022-07-28T03:36:12.174Z,17.49
2022-07-28T03:38:46.065Z,17.44
2022-07-28T03:41:16.916Z,17.39
2022-07-28T03:43:44.704Z,17.36
2022-07-28T03:46:13.692Z,17.29
2022-07-28T03:48:40.368Z,17.15
2022-07-28T03:51:06.991Z,17.14
2022-07-28T03:53:36.183Z,17.12
2022-07-28T03:56:03.366Z,17.16
2022-07-28T03:58:30.915Z,17.10
2022-07-28T04:00:58.297Z,17.11
2022-07-28T04:03:42.805Z,17.13
2022-07-28T04:06:15.237Z,17.13
2022-07-28T04:08:42.756Z,17.09
2022-07-28T04:11:11.479Z,17.07
2022-07-28T04:13:39.036Z,17.08
2022-07-28T04:16:06.982Z,17.04
2022-07-28T04:18:33.734Z,17.12
2022-07-28T04:21:01.865Z,17.13
2022-07-28T04:23:28.387Z,17.16
2022-07-28T04:25:57.117Z,17.15
2022-07-28T04:28:24.275Z,17.15
2022-07-28T04:30:54.014Z,17.21
2022-07-28T04:33:24.785Z,17.25
2022-07-28T04:35:52.857Z,17.33
2022-07-28T04:38:21.684Z,17.33
2022-07-28T04:40:48.711Z,17.36
2022-07-28T04:43:16.725Z,17.37
2022-07-28T04:45:53.730Z,17.40
2022-07-28T04:48:21.448Z,17.40
2022-07-28T04:50:47.882Z,17.46
2022-07-28T04:53:14.295Z,17.46
2022-07-28T04:55:40.811Z,17.48
2022-07-28T04:58:07.722Z,17.52
2022-07-28T05:00:36.056Z,17.57
2022-07-28T05:03:03.621Z,17.58
2022-07-28T05:05:32.376Z,17.57
2022-07-28T05:07:58.838Z,17.61
2022-07-28T05:10:28.757Z,17.64
2022-07-28T05:12:55.174Z,17.72
2022-07-28T05:15:21.648Z,17.75
2022-07-28T05:17:49.644Z,17.78
2022-07-28T05:20:18.423Z,17.82
2022-07-28T05:22:47.426Z,17.80
2022-07-28T05:25:25.414Z,17.88
2022-07-28T05:27:53.451Z,17.90
2022-07-28T05:30:20.573Z,17.98
2022-07-28T05:32:50.377Z,18.03
2022-07-28T05:35:18.955Z,18.08
2022-07-28T05:37:47.792Z,18.15
2022-07-28T05:40:15.367Z,18.23
2022-07-28T05:42:43.246Z,18.31
2022-07-28T05:45:16.368Z,18.40
2022-07-28T05:47:50.265Z,18.46
2022-07-28T05:50:20.840Z,18.56
2022-07-28T05:52:48.327Z,18.65
2022-07-28T05:55:17.863Z,18.73
2022-07-28T05:57:45.056Z,18.83
2022-07-28T06:00:17.318Z,18.85
2022-07-28T06:02:49.295Z,18.87
2022-07-28T06:05:17.709Z,18.96
2022-07-28T06:07:45.238Z,19.00
2022-07-28T06:10:17.612Z,19.12
2022-07-28T06:12:47.655Z,19.16
2022-07-28T06:15:15.939Z,19.19
2022-07-28T06:17:42.932Z,19.25
2022-07-28T06:20:12.590Z,19.29
2022-07-28T06:22:44.605Z,19.38
2022-07-28T06:25:15.816Z,19.44
2022-07-28T06:27:42.734Z,19.47
2022-07-28T06:30:10.127Z,19.53
2022-07-28T06:32:36.646Z,19.57
2022-07-28T06:35:03.606Z,19.59
2022-07-28T06:37:30.046Z,19.60
2022-07-28T06:39:56.547Z,19.64
2022-07-28T06:42:23.689Z,19.67
2022-07-28T06:44:58.961Z,19.71
2022-07-28T06:47:26.756Z,19.77
2022-07-28T06:49:53.164Z,19.83
2022-07-28T06:52:20.782Z,19.87
2022-07-28T06:54:52.330Z,19.94
2022-07-28T06:57:22.921Z,20.03
2022-07-28T06:59:55.141Z,20.13
2022-07-28T07:02:26.375Z,20.20
2022-07-28T07:04:54.723Z,20.27
2022-07-28T07:07:23.439Z,20.36
2022-07-28T07:09:50.043Z,20.47
2022-07-28T07:12:16.460Z,20.71
2022-07-28T07:14:42.954Z,21.10
2022-07-28T07:17:09.419Z,21.34
2022-07-28T07:19:35.807Z,21.71
2022-07-28T07:22:02.903Z,21.72
2022-07-28T07:24:29.327Z,21.85
2022-07-28T07:26:55.995Z,22.14
2022-07-28T07:29:25.491Z,22.14
2022-07-28T07:31:58.484Z,22.13
2022-07-28T07:34:27.877Z,22.52
2022-07-28T07:36:54.319Z,22.56
2022-07-28T07:39:21.078Z,22.86
2022-07-28T07:41:47.591Z,23.02
2022-07-28T07:44:14.444Z,23.06
2022-07-28T07:46:41.311Z,23.25
2022-07-28T07:49:08.153Z,23.46
2022-07-28T07:51:37.674Z,23.56
2022-07-28T07:54:04.203Z,23.73
2022-07-28T07:56:30.712Z,23.79
2022-07-28T07:58:58.641Z,23.88
2022-07-28T08:01:25.196Z,24.11
2022-07-28T08:03:51.744Z,24.22
2022-07-28T08:06:26.493Z,24.07
2022-07-28T08:08:53.746Z,23.65
2022-07-28T08:11:20.164Z,24.00
2022-07-28T08:13:46.614Z,24.11
2022-07-28T08:16:13.077Z,24.15
2022-07-28T08:18:39.627Z,23.95
2022-07-28T08:21:07.446Z,24.04
2022-07-28T08:23:36.362Z,23.98
2022-07-28T08:26:04.112Z,23.76
2022-07-28T08:28:30.644Z,23.68
2022-07-28T08:30:57.122Z,23.95
2022-07-28T08:33:23.731Z,23.93
2022-07-28T08:35:51.429Z,24.07
2022-07-28T08:38:20.762Z,23.79
2022-07-28T08:40:49.746Z,23.98
2022-07-28T08:43:43.533Z,24.40
2022-07-28T08:46:12.520Z,24.62
2022-07-28T08:48:39.271Z,24.82
2022-07-28T08:51:10.311Z,24.83
2022-07-28T08:53:39.043Z,25.15
2022-07-28T08:56:09.548Z,25.33
2022-07-28T08:58:38.127Z,25.17
2022-07-28T09:01:06.911Z,25.24
2022-07-28T09:03:33.648Z,25.35
2022-07-28T09:06:00.644Z,25.45
2022-07-28T09:08:27.334Z,25.62
2022-07-28T09:10:53.804Z,25.51
2022-07-28T09:13:20.617Z,25.87
2022-07-28T09:15:47.750Z,26.21
2022-07-28T09:18:15.767Z,26.08
2022-07-28T09:20:45.232Z,26.30
2022-07-28T09:23:33.552Z,25.90
2022-07-28T09:26:12.047Z,26.42
2022-07-28T09:28:55.951Z,26.19
2022-07-28T09:31:24.198Z,26.37
2022-07-28T09:34:01.051Z,26.52
2022-07-28T09:36:31.792Z,26.31
2022-07-28T09:38:59.091Z,26.62
2022-07-28T09:41:25.643Z,26.68
2022-07-28T09:43:56.098Z,26.60
2022-07-28T09:46:29.966Z,26.73
2022-07-28T09:48:59.461Z,26.97
2022-07-28T09:51:30.977Z,26.81
2022-07-28T09:54:14.317Z,27.28
2022-07-28T09:56:45.962Z,27.23
2022-07-28T09:59:14.489Z,27.44
2022-07-28T10:01:53.232Z,27.41
2022-07-28T10:04:40.544Z,27.75
2022-07-28T10:07:07.217Z,27.55
2022-07-28T10:09:34.195Z,27.68
2022-07-28T10:12:24.329Z,27.62
2022-07-28T10:14:53.059Z,27.69
2022-07-28T10:17:27.611Z,27.68
2022-07-28T10:19:55.140Z,27.89
2022-07-28T10:22:25.235Z,27.75
2022-07-28T10:24:59.949Z,27.68
2022-07-28T10:27:27.098Z,27.86
2022-07-28T10:30:04.733Z,27.75
2022-07-28T10:32:38.163Z,27.72
2022-07-28T10:35:16.759Z,27.89
2022-07-28T10:37:59.675Z,27.72
2022-07-28T10:40:47.035Z,27.66
2022-07-28T10:43:18.390Z,27.52
2022-07-28T10:46:05.067Z,27.53
2022-07-28T10:48:33.146Z,27.53
2022-07-28T10:51:01.246Z,27.57
2022-07-28T10:53:34.254Z,27.44
2022-07-28T10:56:11.376Z,27.73
2022-07-28T10:59:05.045Z,27.73
2022-07-28T11:01:53.837Z,27.64
2022-07-28T11:04:46.103Z,27.60
2022-07-28T11:07:17.177Z,27.53
2022-07-28T11:09:45.626Z,27.94
2022-07-28T11:12:17.485Z,28.23
2022-07-28T11:14:44.813Z,28.38
2022-07-28T11:17:13.658Z,28.31
2022-07-28T11:20:06.879Z,28.02
2022-07-28T11:22:34.739Z,28.21
2022-07-28T11:25:19.880Z,28.29
2022-07-28T11:27:50.730Z,28.53
2022-07-28T11:30:32.106Z,28.63
2022-07-28T11:33:01.026Z,28.76
2022-07-28T11:35:54.573Z,28.77
2022-07-28T11:38:22.748Z,29.02
2022-07-28T11:40:56.370Z,28.91
2022-07-28T11:43:36.803Z,28.94
2022-07-28T11:46:04.757Z,29.05
2022-07-28T11:48:40.339Z,29.19
2022-07-28T11:51:06.874Z,29.17
2022-07-28T11:53:45.989Z,29.08
2022-07-28T11:56:15.054Z,29.22
2022-07-28T11:58:42.770Z,29.02
2022-07-28T12:01:17.325Z,28.62
2022-07-28T12:03:50.097Z,28.90
2022-07-28T12:06:29.221Z,29.33
2022-07-28T12:09:04.766Z,29.25
2022-07-28T12:11:36.866Z,29.21
2022-07-28T12:14:28.971Z,29.31
2022-07-28T12:16:56.205Z,29.29
2022-07-28T12:19:24.254Z,29.10
2022-07-28T12:21:59.779Z,29.07
2022-07-28T12:24:46.102Z,28.87
2022-07-28T12:27:15.265Z,28.87
2022-07-28T12:29:43.855Z,29.13
2022-07-28T12:32:14.450Z,29.11
2022-07-28T12:34:42.269Z,28.91
2022-07-28T12:37:12.321Z,29.10
2022-07-28T12:39:42.103Z,29.17
2022-07-28T12:42:16.823Z,29.24
2022-07-28T12:44:47.393Z,29.08
2022-07-28T12:47:15.491Z,29.17
2022-07-28T12:49:43.346Z,29.38
2022-07-28T12:52:22.697Z,29.12
2022-07-28T12:54:55.090Z,29.22
2022-07-28T12:57:51.648Z,29.35
2022-07-28T13:00:23.931Z,29.07
2022-07-28T13:02:58.287Z,28.83
2022-07-28T13:05:54.053Z,28.87
2022-07-28T13:08:21.496Z,28.69
2022-07-28T13:10:56.657Z,28.68
2022-07-28T13:13:25.374Z,28.71
2022-07-28T13:16:11.944Z,28.51
2022-07-28T13:18:46.731Z,28.63
2022-07-28T13:21:13.476Z,28.57
2022-07-28T13:23:39.904Z,28.76
2022-07-28T13:26:07.640Z,28.97
2022-07-28T13:28:41.247Z,29.03
2022-07-28T13:31:12.437Z,29.06
2022-07-28T13:33:38.849Z,29.10
2022-07-28T13:36:07.846Z,28.99
2022-07-28T13:38:36.635Z,28.92
2022-07-28T13:41:03.181Z,28.90
2022-07-28T13:43:36.199Z,28.94
2022-07-28T13:46:03.429Z,28.94
2022-07-28T13:48:32.777Z,28.98
2022-07-28T13:51:02.304Z,28.96
2022-07-28T13:53:37.062Z,28.96
2022-07-28T13:56:07.624Z,28.86
2022-07-28T13:58:35.073Z,28.85
2022-07-28T14:01:06.027Z,28.90
2022-07-28T14:03:53.563Z,28.97
2022-07-28T14:06:21.971Z,28.96
2022-07-28T14:08:48.827Z,28.92
2022-07-28T14:11:19.247Z,28.88
2022-07-28T14:13:46.213Z,28.84
2022-07-28T14:16:19.506Z,28.86
2022-07-28T14:18:46.811Z,28.66
2022-07-28T14:21:15.987Z,28.66
2022-07-28T14:23:44.030Z,28.59
2022-07-28T14:26:34.494Z,28.53
2022-07-28T14:28:56.972Z,28.50
2022-07-28T14:31:23.511Z,28.44
2022-07-28T14:33:54.425Z,28.54
2022-07-28T14:36:21.967Z,28.56
2022-07-28T14:38:53.566Z,28.62
2022-07-28T14:41:24.850Z,28.70
2022-07-28T14:43:52.253Z,28.77
2022-07-28T14:46:21.711Z,28.84
2022-07-28T14:48:50.015Z,28.89
2022-07-28T14:51:21.631Z,28.84
2022-07-28T14:53:52.187Z,28.94
2022-07-28T14:56:18.921Z,28.95
2022-07-28T14:58:45.341Z,28.95
2022-07-28T15:01:17.371Z,29.02
2022-07-28T15:03:43.917Z,29.09
2022-07-28T15:06:10.775Z,29.10
2022-07-28T15:08:37.550Z,29.04
2022-07-28T15:11:04.138Z,29.02
2022-07-28T15:13:30.629Z,28.97
2022-07-28T15:15:59.700Z,28.98
2022-07-28T15:18:26.333Z,29.00
2022-07-28T15:20:54.600Z,29.07
2022-07-28T15:23:21.058Z,29.04
2022-07-28T15:25:47.549Z,29.12
2022-07-28T15:28:17.721Z,29.08
2022-07-28T15:30:52.654Z,29.06
2022-07-28T15:33:19.728Z,29.07
2022-07-28T15:35:58.387Z,29.09
2022-07-28T15:38:29.429Z,29.10
2022-07-28T15:41:00.607Z,29.10
2022-07-28T15:43:32.852Z,29.07
2022-07-28T15:46:03.485Z,29.02
2022-07-28T15:48:30.108Z,29.01
2022-07-28T15:50:57.019Z,29.02
2022-07-28T15:53:23.616Z,29.00
2022-07-28T15:55:51.621Z,29.00
2022-07-28T15:58:19.239Z,29.02
2022-07-28T16:00:48.013Z,29.03
2022-07-28T16:03:16.882Z,29.02
2022-07-28T16:05:49.511Z,28.98
2022-07-28T16:08:17.867Z,28.99
2022-07-28T16:10:44.997Z,28.97
2022-07-28T16:13:11.865Z,28.98
2022-07-28T16:15:40.955Z,28.96
2022-07-28T16:18:07.490Z,29.01
2022-07-28T16:20:41.850Z,29.04
2022-07-28T16:23:08.325Z,29.03
2022-07-28T16:25:44.578Z,29.03
2022-07-28T16:28:14.120Z,29.01
2022-07-28T16:30:40.541Z,28.96
2022-07-28T16:33:08.241Z,28.93
2022-07-28T16:35:34.730Z,28.90
2022-07-28T16:38:05.010Z,28.88
2022-07-28T16:40:32.667Z,28.87
2022-07-28T16:43:03.387Z,28.87
2022-07-28T16:45:32.863Z,28.83
2022-07-28T16:48:02.935Z,28.84
2022-07-28T16:50:31.695Z,28.82
2022-07-28T16:52:58.386Z,28.83
2022-07-28T16:55:24.867Z,28.79
2022-07-28T16:57:52.721Z,28.82
2022-07-28T17:00:19.435Z,28.80
2022-07-28T17:02:45.871Z,28.82
2022-07-28T17:05:13.043Z,28.80
2022-07-28T17:07:45.858Z,28.79
2022-07-28T17:10:14.299Z,28.80
2022-07-28T17:12:41.245Z,28.74
2022-07-28T17:15:19.561Z,28.73
2022-07-28T17:17:50.734Z,28.65
2022-07-28T17:20:17.517Z,28.65
2022-07-28T17:22:44.809Z,28.67
2022-07-28T17:28:04.793Z,28.58
2022-07-28T17:30:33.014Z,28.52
2022-07-28T17:33:08.442Z,28.52
2022-07-28T17:35:36.054Z,28.53
2022-07-28T17:38:03.870Z,28.48
2022-07-28T17:40:30.512Z,28.44
2022-07-28T17:42:57.951Z,28.43
2022-07-28T17:45:24.588Z,28.42
2022-07-28T17:47:51.681Z,28.34
2022-07-28T17:50:20.739Z,28.33
2022-07-28T17:52:50.619Z,28.31
2022-07-28T17:55:57.917Z,28.26
2022-07-28T17:58:28.619Z,28.17
2022-07-28T18:01:10.811Z,28.03
2022-07-28T18:03:58.905Z,28.03
2022-07-28T18:06:30.833Z,27.86
2022-07-28T18:09:02.807Z,27.78
2022-07-28T18:11:55.938Z,27.71
2022-07-28T18:14:28.517Z,27.68
2022-07-28T18:16:55.790Z,27.62
2022-07-28T18:19:22.339Z,27.62
2022-07-28T18:21:48.898Z,27.62
2022-07-28T18:24:15.563Z,27.59
2022-07-28T18:26:42.366Z,27.55
2022-07-28T18:29:08.957Z,27.55
2022-07-28T18:31:35.514Z,27.51
2022-07-28T18:34:04.622Z,27.46
2022-07-28T18:36:33.707Z,27.36
2022-07-28T18:39:02.749Z,27.26
2022-07-28T18:41:29.870Z,27.21
2022-07-28T18:44:01.449Z,27.21
2022-07-28T18:46:28.006Z,27.21
2022-07-28T18:48:57.058Z,27.21
2022-07-28T18:51:23.936Z,27.16
2022-07-28T18:53:52.951Z,27.16
2022-07-28T18:56:19.343Z,27.07
2022-07-28T18:58:45.828Z,27.06
2022-07-28T19:01:13.488Z,27.05
2022-07-28T19:03:47.240Z,27.05
2022-07-28T19:06:17.468Z,27.02
2022-07-28T19:08:46.084Z,26.99
2022-07-28T19:11:15.114Z,26.89
2022-07-28T19:13:44.701Z,26.88
2022-07-28T19:16:13.632Z,26.85
2022-07-28T19:18:40.481Z,26.72
2022-07-28T19:21:08.018Z,26.68
2022-07-28T19:23:34.439Z,26.60
2022-07-28T19:26:03.877Z,26.50
2022-07-28T19:28:30.447Z,26.43
2022-07-28T19:30:58.533Z,26.37
2022-07-28T19:33:25.826Z,26.37
2022-07-28T19:35:52.314Z,26.36
2022-07-28T19:38:18.800Z,26.33
2022-07-28T19:40:45.287Z,26.31
2022-07-28T19:43:14.201Z,26.29
2022-07-28T19:45:41.051Z,26.23
2022-07-28T19:48:09.842Z,26.16
2022-07-28T19:50:36.857Z,26.11
2022-07-28T19:53:03.737Z,26.16
2022-07-28T19:55:34.957Z,26.15
2022-07-28T19:58:04.568Z,26.11
2022-07-28T20:00:31.028Z,26.10
2022-07-28T20:03:00.102Z,26.13
2022-07-28T20:05:26.711Z,26.11
2022-07-28T20:07:53.134Z,26.22
2022-07-28T20:10:19.582Z,26.18
2022-07-28T20:12:46.139Z,26.17
2022-07-28T20:15:15.176Z,26.16
2022-07-28T20:17:42.778Z,26.13
2022-07-28T20:20:11.996Z,26.06
2022-07-28T20:22:39.462Z,26.04
2022-07-28T20:25:09.274Z,26.04
2022-07-28T20:27:40.048Z,26.01
2022-07-28T20:30:09.189Z,25.93
2022-07-28T20:32:36.854Z,25.91
2022-07-28T20:35:07.495Z,25.91
2022-07-28T20:37:36.928Z,25.89
2022-07-28T20:40:06.197Z,25.84
2022-07-28T20:42:35.778Z,25.74
2022-07-28T20:45:05.172Z,25.78
2022-07-28T20:47:32.750Z,25.69
2022-07-28T20:50:00.466Z,25.62
2022-07-28T20:52:30.150Z,25.58
2022-07-28T20:54:58.893Z,25.49
2022-07-28T20:57:25.308Z,25.39
2022-07-28T20:59:52.127Z,25.26
2022-07-28T21:02:20.162Z,25.14
2022-07-28T21:04:50.315Z,24.95
2022-07-28T21:08:00.153Z,24.72
2022-07-28T21:10:07.107Z,24.52
2022-07-28T21:12:37.166Z,24.35
2022-07-28T21:15:13.418Z,24.31
2022-07-28T21:17:39.920Z,24.61
2022-07-28T21:20:06.881Z,24.59
2022-07-28T21:22:35.342Z,24.82
2022-07-28T21:25:01.870Z,25.12
2022-07-28T21:27:49.200Z,25.72
2022-07-28T21:30:15.873Z,25.68
2022-07-28T21:32:42.299Z,25.79
2022-07-28T21:35:14.165Z,25.74
2022-07-28T21:37:43.972Z,25.68
2022-07-28T21:40:10.892Z,25.65
2022-07-28T21:42:37.396Z,25.66
2022-07-28T21:45:11.135Z,25.65
2022-07-28T21:47:37.835Z,25.58
2022-07-28T21:50:04.633Z,25.56
2022-07-28T21:52:33.314Z,25.54
2022-07-28T21:55:00.876Z,25.50
2022-07-28T21:57:27.771Z,25.46
2022-07-28T21:59:54.316Z,25.37
2022-07-28T22:02:20.809Z,25.14
2022-07-28T22:04:53.389Z,24.99
2022-07-28T22:07:20.254Z,24.89
2022-07-28T22:09:47.789Z,24.91
2022-07-28T22:12:14.266Z,24.58
2022-07-28T22:14:40.878Z,24.36
2022-07-28T22:17:13.491Z,24.29
2022-07-28T22:19:40.069Z,24.20
2022-07-28T22:22:06.569Z,24.15
2022-07-28T22:24:33.134Z,24.09
2022-07-28T22:27:00.263Z,24.08
2022-07-28T22:29:27.977Z,24.06
2022-07-28T22:31:59.554Z,24.02
2022-07-28T22:34:31.321Z,24.05
2022-07-28T22:36:57.655Z,24.26
2022-07-28T22:39:24.340Z,24.24
2022-07-28T22:41:50.726Z,24.15
2022-07-28T22:44:22.095Z,24.25
2022-07-28T22:46:50.273Z,24.16
2022-07-28T22:49:16.887Z,24.17
2022-07-28T22:51:46.407Z,24.21
2022-07-28T22:54:17.815Z,24.27
2022-07-28T22:56:44.864Z,24.19
2022-07-28T22:59:11.519Z,24.16
2022-07-28T23:01:43.061Z,24.14
2022-07-28T23:04:09.507Z,24.17
2022-07-28T23:06:36.102Z,23.95
2022-07-28T23:09:02.624Z,23.98
2022-07-28T23:11:29.188Z,23.98
2022-07-28T23:13:58.968Z,23.84
2022-07-28T23:16:25.534Z,23.79
2022-07-28T23:18:51.958Z,23.66
2022-07-28T23:21:18.425Z,23.40
2022-07-28T23:23:47.956Z,23.41
2022-07-28T23:26:14.389Z,23.42
2022-07-28T23:28:40.862Z,23.40
2022-07-28T23:31:07.417Z,23.18
2022-07-28T23:33:56.065Z,23.06
2022-07-28T23:36:26.790Z,22.98
2022-07-28T23:38:56.382Z,23.00
2022-07-28T23:41:25.617Z,23.08
2022-07-28T23:43:52.509Z,23.16
2022-07-28T23:46:19.044Z,23.13
2022-07-28T23:48:48.032Z,23.21
2022-07-28T23:51:14.534Z,23.13
2022-07-28T23:53:44.114Z,23.07
2022-07-28T23:56:10.824Z,23.17
2022-07-28T23:58:37.689Z,23.17
